Latest Coastal Weather Observations for Warruwi

IDD60701

Issued at 1:05 pm CST Wednesday 17 September 2014 (issued every 10 minutes, with the page automatically refreshed every 10 minutes)

About coastal observations | Map of coastal stations | Coastal observations for NT | Marine services | Other Formats
Station Details ID: 014401 Name: WARRUWI AIRPORT Lat: -11.65 Lon: 133.38 Height: 19.2 m
Data from the previous 72 hours. | See also: Recent months at Warruwi
Date/Time
CST
Temp

°C
Wind Pressure Rain
since 9am
mm
Weather Cloud Vis
km
Sea
Height
m
Swell
Dir
 
Speed
knots
Gust
knots
hPa Trend Height
m
Period
s
Dir
17/01:00pm 27.9 E 11 16 1013.4 - 0.0 - - - - - - -
17/12:30pm 28.3 E 10 16 1013.8 - 0.0 - - - - - - -
17/12:00pm 28.4 E 8 12 1014.1 - 0.0 - - - - - - -
17/11:30am 27.9 E 6 9 1014.3 - 0.0 - - - - - - -
17/11:00am 28.0 ESE 8 10 1014.7 - 0.0 - - - - - - -
17/10:30am 27.8 E 6 10 1015.1 - 0.0 - - - - - - -
17/10:00am 26.9 ESE 6 9 1015.1 - 0.0 - - - - - - -
17/09:30am 26.8 E 6 8 1015.1 - 0.0 - - - - - - -
17/09:00am 26.3 ESE 5 7 1014.7 - 0.0 - - - - - - -
17/08:30am 25.5 ESE 5 7 1014.4 - 0.0 - - - - - - -
17/08:00am 24.9 SE 5 6 1014.0 - 0.0 - - - - - - -
17/07:30am 24.6 SE 4 6 1013.6 - 0.0 - - - - - - -
17/07:00am 23.9 SE 3 4 1013.2 - 0.0 - - - - - - -
17/06:30am 24.1 SE 3 4 1012.8 - 0.0 - - - - - - -
17/06:00am 24.5 E 5 7 1012.3 - 0.0 - - - - - - -
17/05:30am 24.5 E 4 6 1012.2 - 0.0 - - - - - - -
17/05:00am 24.4 ENE 3 5 1012.1 - 0.0 - - - - - - -
17/04:30am 24.4 ENE 3 6 1011.9 - 0.0 - - - - - - -
17/04:00am 24.7 E 5 9 1011.7 - 0.0 - - - - - - -
17/03:30am 24.8 E 5 8 1011.7 - 0.0 - - - - - - -
17/03:00am 24.8 E 5 7 1011.8 - 0.0 - - - - - - -
17/02:30am 24.8 ENE 4 7 1011.9 - 0.0 - - - - - - -
17/02:00am 25.0 ENE 5 10 1012.4 - 0.0 - - - - - - -
17/01:30am 25.0 ENE 4 6 1012.6 - 0.0 - - - - - - -
17/01:00am 25.2 E 5 8 1013.0 - 0.0 - - - - - - -
17/12:30am 25.2 E 5 9 1013.2 - 0.0 - - - - - - -
17/12:00am 25.2 E 5 7 1013.4 - 0.0 - - - - - - -
 
Date/Time
CST
Temp

°C
Wind Pressure Rain
since 9am
mm
Weather Cloud Vis
km
Sea
Height
m
Swell
Dir
 
Speed
knots
Gust
knots
hPa Trend Height
m
Period
s
Dir
16/11:30pm 25.2 E 4 6 1013.3 - 0.0 - - - - - - -
16/11:00pm 25.1 ENE 4 6 1013.2 - 0.0 - - - - - - -
16/10:30pm 25.1 ENE 4 7 1013.1 - 0.0 - - - - - - -
16/10:00pm 25.2 ENE 4 8 1013.1 - 0.0 - - - - - - -
16/09:30pm 25.3 ENE 5 8 1012.9 - 0.0 - - - - - - -
16/09:00pm 25.3 ENE 5 10 1012.8 - 0.0 - - - - - - -
16/08:30pm 25.4 ENE 5 10 1012.6 - 0.0 - - - - - - -
16/08:00pm 25.5 ENE 5 9 1012.3 - 0.0 - - - - - - -
16/07:30pm 25.6 ENE 6 10 1012.0 - 0.0 - - - - - - -
16/07:00pm 25.8 ENE 6 10 1011.6 - 0.0 - - - - - - -
16/06:30pm 26.1 ENE 5 10 1011.4 - 0.0 - - - - - - -
16/06:00pm 26.6 ENE 6 11 1011.1 - 0.0 - - - - - - -
16/05:30pm 27.3 NE 5 10 1010.9 - 0.0 - - - - - - -
16/05:00pm 28.1 NE 6 11 1010.9 - 0.0 - - - - - - -
16/04:30pm 28.4 NE 7 14 1011.1 - 0.0 - - - - - - -
16/04:00pm 29.1 NE 8 13 1010.9 - 0.0 - - - - - - -
16/03:30pm 29.2 NE 7 14 1010.8 - 0.0 - - - - - - -
16/03:00pm 29.2 NE 7 14 1011.1 - 0.0 - - - - - - -
16/02:30pm 28.9 NE 7 12 1011.6 - 0.0 - - - - - - -
16/02:00pm 28.6 E 9 14 1012.1 - 0.0 - - - - - - -
16/01:30pm 28.8 E 10 13 1012.3 - 0.0 - - - - - - -
16/01:00pm 28.5 E 8 11 1012.8 - 0.0 - - - - - - -
16/12:30pm 28.8 E 6 10 1013.0 - 0.0 - - - - - - -
16/12:00pm 28.6 E 7 10 1013.4 - 0.0 - - - - - - -
16/11:30am 28.1 ESE 6 9 1013.7 - 0.0 - - - - - - -
16/11:00am 28.2 ESE 7 11 1014.0 - 0.0 - - - - - - -
16/10:30am 27.9 ESE 8 11 1014.2 - 0.0 - - - - - - -
16/10:00am 27.9 ESE 7 10 1014.4 - 0.0 - - - - - - -
16/09:30am 27.2 ESE 5 8 1014.4 - 0.0 - - - - - - -
16/09:00am 26.8 E 4 8 1014.4 - 0.0 - - - - - - -
16/08:30am 26.5 E 5 8 1014.2 - 0.0 - - - - - - -
16/08:00am 26.3 E 5 7 1013.8 - 0.0 - - - - - - -
16/07:30am 25.4 ENE 3 6 1013.4 - 0.0 - - - - - - -
16/07:00am 23.9 NE 1 2 1012.9 - 0.0 - - - - - - -
16/06:30am 24.0 NNE 2 3 1012.5 - 0.0 - - - - - - -
16/06:00am 24.3 NE 2 4 1012.1 - 0.0 - - - - - - -
16/05:30am 24.7 ENE 4 6 1011.7 - 0.0 - - - - - - -
16/05:00am 24.8 E 4 6 1011.5 - 0.0 - - - - - - -
16/04:30am 24.9 E 5 8 1011.4 - 0.0 - - - - - - -
16/04:00am 25.1 E 6 9 1011.2 - 0.0 - - - - - - -
16/03:30am 25.2 E 7 11 1011.3 - 0.0 - - - - - - -
16/03:00am 25.0 ENE 4 6 1011.4 - 0.0 - - - - - - -
16/02:30am 24.9 ENE 4 6 1011.6 - 0.0 - - - - - - -
16/02:00am 25.0 NE 3 7 1011.9 - 0.0 - - - - - - -
16/01:30am 25.1 ENE 4 7 1012.1 - 0.0 - - - - - - -
16/01:00am 25.1 ENE 4 7 1012.3 - 0.0 - - - - - - -
16/12:30am 25.1 ENE 4 7 1012.5 - 0.0 - - - - - - -
16/12:00am 25.1 ENE 4 6 1012.6 - 0.0 - - - - - - -
 
Date/Time
CST
Temp

°C
Wind Pressure Rain
since 9am
mm
Weather Cloud Vis
km
Sea
Height
m
Swell
Dir
 
Speed
knots
Gust
knots
hPa Trend Height
m
Period
s
Dir
15/11:30pm 25.2 ENE 5 8 1012.6 - 0.0 - - - - - - -
15/11:00pm 25.2 ENE 5 8 1012.5 - 0.0 - - - - - - -
15/10:30pm 25.3 ENE 5 8 1012.5 - 0.0 - - - - - - -
15/10:00pm 25.3 ENE 4 8 1012.6 - 0.0 - - - - - - -
15/09:30pm 25.4 ENE 6 9 1012.4 - 0.0 - - - - - - -
15/09:00pm 25.4 ENE 5 10 1012.2 - 0.0 - - - - - - -
15/08:30pm 25.6 ENE 6 10 1011.9 - 0.0 - - - - - - -
15/08:00pm 25.6 NE 5 9 1011.6 - 0.0 - - - - - - -
15/07:30pm 25.6 ENE 5 8 1011.3 - 0.0 - - - - - - -
15/07:00pm 25.8 ENE 5 10 1011.0 - 0.0 - - - - - - -
15/06:30pm 26.1 ENE 6 10 1010.7 - 0.0 - - - - - - -
15/06:00pm 26.6 ENE 6 13 1010.3 - 0.0 - - - - - - -
15/05:30pm 27.3 ENE 7 11 1010.4 - 0.0 - - - - - - -
15/05:00pm 27.6 ENE 8 12 1010.5 - 0.0 - - - - - - -
15/04:30pm 28.3 ENE 8 12 1010.6 - 0.0 - - - - - - -
15/04:00pm 28.6 E 10 14 1010.6 - 0.0 - - - - - - -
15/03:30pm 28.7 E 9 13 1010.8 - 0.0 - - - - - - -
15/03:00pm 28.4 E 10 15 1010.9 - 0.0 - - - - - - -
15/02:30pm 28.3 E 9 13 1011.4 - 0.0 - - - - - - -
15/02:00pm 28.2 E 8 12 1011.9 - 0.0 - - - - - - -
15/01:30pm 28.9 E 10 13 1012.4 - 0.0 - - - - - - -
15/01:00pm 28.8 E 9 13 1012.9 - 0.0 - - - - - - -
15/12:30pm 29.4 E 9 14 1013.1 - 0.0 - - - - - - -
15/12:00pm 28.4 E 10 15 1013.7 - 0.0 - - - - - - -
15/11:30am 28.6 E 11 14 1014.0 - 0.0 - - - - - - -
15/11:00am 27.9 E 9 13 1014.3 - 0.0 - - - - - - -
15/10:30am 27.8 E 10 13 1014.5 - 0.0 - - - - - - -
15/10:00am 27.7 E 9 13 1014.4 - 0.0 - - - - - - -
15/09:30am 27.3 E 10 13 1014.2 - 0.0 - - - - - - -
15/09:00am 27.0 E 8 12 1014.1 - 0.0 - - - - - - -
15/08:30am 26.3 E 8 11 1013.9 - 0.0 - - - - - - -
15/08:00am 26.2 E 8 12 1013.6 - 0.0 - - - - - - -
15/07:30am 25.5 E 9 14 1013.2 - 0.0 - - - - - - -
15/07:00am 25.1 E 8 12 1012.7 - 0.0 - - - - - - -
15/06:30am 25.0 E 8 11 1012.3 - 0.0 - - - - - - -
15/06:00am 25.1 E 9 13 1012.0 - 0.0 - - - - - - -
15/05:30am 25.1 E 9 13 1011.6 - 0.0 - - - - - - -
15/05:00am 25.0 E 8 13 1011.4 - 0.0 - - - - - - -
15/04:30am 25.0 E 8 12 1011.2 - 0.0 - - - - - - -
15/04:00am 25.1 ENE 7 13 1011.2 - 0.0 - - - - - - -
15/03:30am 25.2 E 8 13 1011.2 - 0.0 - - - - - - -
15/03:00am 25.3 E 8 12 1011.3 - 0.0 - - - - - - -
15/02:30am 25.4 E 7 11 1011.5 - 0.0 - - - - - - -
15/02:00am 25.4 E 8 12 1011.8 - 0.0 - - - - - - -
15/01:30am 25.4 E 8 12 1012.0 - 0.0 - - - - - - -
15/01:00am 25.4 E 8 12 1012.2 - 0.0 - - - - - - -
15/12:30am 25.3 E 6 11 1012.3 - 0.0 - - - - - - -
15/12:00am 25.4 E 8 12 1012.5 - 0.0 - - - - - - -
 
Date/Time
CST
Temp

°C
Wind Pressure Rain
since 9am
mm
Weather Cloud Vis
km
Sea
Height
m
Swell
Dir
 
Speed
knots
Gust
knots
hPa Trend Height
m
Period
s
Dir
14/11:30pm 25.5 ENE 8 13 1012.8 - 0.0 - - - - - - -
14/11:00pm 25.5 E 9 14 1012.6 - 0.0 - - - - - - -
14/10:30pm 25.4 ENE 7 14 1012.5 - 0.0 - - - - - - -
14/10:00pm 25.5 ENE 6 12 1012.4 - 0.0 - - - - - - -
14/09:30pm 25.5 ENE 7 12 1012.3 - 0.0 - - - - - - -
14/09:00pm 25.6 ENE 6 10 1012.1 - 0.0 - - - - - - -
14/08:30pm 25.7 ENE 4 7 1012.0 - 0.0 - - - - - - -
14/08:00pm 25.7 ENE 4 8 1011.5 - 0.0 - - - - - - -
14/07:30pm 25.8 ENE 4 7 1011.2 - 0.0 - - - - - - -
14/07:00pm 26.0 NE 4 7 1010.8 - 0.0 - - - - - - -
14/06:30pm 26.3 NE 5 9 1010.5 - 0.0 - - - - - - -
14/06:00pm 27.0 NE 6 10 1010.4 - 0.0 - - - - - - -
14/05:30pm 27.8 ENE 6 11 1010.3 - 0.0 - - - - - - -
14/05:00pm 28.6 ENE 7 13 1010.2 - 0.0 - - - - - - -
14/04:30pm 28.5 ENE 8 14 1010.1 - 0.0 - - - - - - -
14/04:00pm 28.9 NE 8 14 1010.1 - 0.0 - - - - - - -
14/03:30pm 29.8 ENE 8 15 1010.2 - 0.0 - - - - - - -
14/03:00pm 29.7 ENE 9 15 1010.4 - 0.0 - - - - - - -
14/02:30pm 28.9 E 10 15 1010.7 - 0.0 - - - - - - -
14/02:00pm 28.0 ENE 9 14 1011.2 - 0.0 - - - - - - -
14/01:30pm 28.7 E 10 14 1011.8 - 0.0 - - - - - - -

Other Formats:

Comma delimited format used in spreadsheet applications
http://www.bom.gov.au/fwo/IDD60701/IDD60701.94139.axf

JavaScript Object Notation format (JSON) in row-major order
http://www.bom.gov.au/fwo/IDD60701/IDD60701.94139.json